createdAt,value
2018-09-11T00:01:17.855Z,20.00
2018-09-11T00:03:45.110Z,21.15
2018-09-11T00:06:12.156Z,18.30
2018-09-11T00:08:40.226Z,19.35
2018-09-11T00:11:07.276Z,22.65
2018-09-11T00:13:34.328Z,17.65
2018-09-11T00:16:01.341Z,16.75
2018-09-11T00:18:28.423Z,17.27
2018-09-11T00:20:55.849Z,16.25
2018-09-11T00:23:22.934Z,19.08
2018-09-11T00:25:49.978Z,18.30
2018-09-11T00:28:17.333Z,17.05
2018-09-11T00:30:44.388Z,19.45
2018-09-11T00:33:11.434Z,19.33
2018-09-11T00:35:38.785Z,16.55
2018-09-11T00:38:05.841Z,17.70
2018-09-11T00:40:32.882Z,16.55
2018-09-11T00:42:59.933Z,26.52
2018-09-11T00:45:27.149Z,19.75
2018-09-11T00:47:54.335Z,16.00
2018-09-11T00:50:21.385Z,18.25
2018-09-11T00:52:48.437Z,19.83
2018-09-11T00:55:15.482Z,20.50
2018-09-11T00:57:42.529Z,18.15
2018-09-11T01:00:09.592Z,17.48
2018-09-11T01:02:36.627Z,19.00
2018-09-11T01:05:03.675Z,20.80
2018-09-11T01:07:30.827Z,21.23
2018-09-11T01:09:57.885Z,17.50
2018-09-11T01:12:24.922Z,17.90
2018-09-11T01:14:51.972Z,17.73
2018-09-11T01:17:19.027Z,19.45
2018-09-11T01:19:46.070Z,22.20
2018-09-11T01:22:13.118Z,16.95
2018-09-11T01:24:40.272Z,19.75
2018-09-11T01:27:07.288Z,16.62
2018-09-11T01:29:34.366Z,19.42
2018-09-11T01:32:01.416Z,18.62
2018-09-11T01:34:28.470Z,16.23
2018-09-11T01:36:55.513Z,16.05
2018-09-11T01:39:22.666Z,14.73
2018-09-11T01:41:49.712Z,16.65
2018-09-11T01:44:16.767Z,16.98
2018-09-11T01:46:43.815Z,21.52
2018-09-11T01:49:10.859Z,14.55
2018-09-11T01:51:37.912Z,14.73
2018-09-11T01:54:04.956Z,13.95
2018-09-11T01:56:32.004Z,17.05
2018-09-11T01:58:59.463Z,20.67
2018-09-11T02:01:26.517Z,14.13
2018-09-11T02:03:53.560Z,16.60
2018-09-11T02:06:23.069Z,17.87
2018-09-11T02:08:50.120Z,14.77
2018-09-11T02:11:17.166Z,14.80
2018-09-11T02:13:45.443Z,14.30
2018-09-11T02:16:12.496Z,14.75
2018-09-11T02:18:39.540Z,15.13
2018-09-11T02:21:06.997Z,12.65
2018-09-11T02:23:34.045Z,20.88
2018-09-11T02:26:01.098Z,18.83
2018-09-11T02:28:28.348Z,11.98
2018-09-11T02:30:55.407Z,11.27
2018-09-11T02:33:22.445Z,12.75
2018-09-11T02:35:50.280Z,14.15
2018-09-11T02:38:17.263Z,11.50
2018-09-11T02:40:44.314Z,10.60
2018-09-11T02:43:11.663Z,11.88
2018-09-11T02:45:39.633Z,12.43
2018-09-11T02:48:06.688Z,13.25
2018-09-11T02:50:33.837Z,11.00
2018-09-11T02:53:00.945Z,16.20
2018-09-11T02:55:27.930Z,10.82
2018-09-11T02:57:54.986Z,12.90
2018-09-11T03:00:22.028Z,12.23
2018-09-11T03:02:49.081Z,9.55
2018-09-11T03:05:16.945Z,9.75
2018-09-11T03:07:43.992Z,13.35
2018-09-11T03:10:11.046Z,11.65
2018-09-11T03:12:38.091Z,9.95
2018-09-11T03:15:05.140Z,10.93
2018-09-11T03:17:32.194Z,10.90
2018-09-11T03:19:59.241Z,8.75
2018-09-11T03:22:26.286Z,11.57
2018-09-11T03:24:54.666Z,10.77
2018-09-11T03:27:21.819Z,14.43
2018-09-11T03:29:48.870Z,10.30
2018-09-11T03:32:16.023Z,10.55
2018-09-11T03:34:43.063Z,12.35
2018-09-11T03:37:10.113Z,29.27
2018-09-11T03:39:37.166Z,9.32
2018-09-11T03:42:05.548Z,9.88
2018-09-11T03:44:34.532Z,10.13
2018-09-11T03:47:01.583Z,11.35
2018-09-11T03:49:28.633Z,13.30
2018-09-11T03:51:55.686Z,10.25
2018-09-11T03:54:22.729Z,11.68
2018-09-11T03:56:50.699Z,8.35
2018-09-11T03:59:17.851Z,9.38
2018-09-11T04:01:44.906Z,10.45
2018-09-11T04:04:12.056Z,11.32
2018-09-11T04:06:39.099Z,8.57
2018-09-11T04:09:06.251Z,15.15
2018-09-11T04:11:33.708Z,13.75
2018-09-11T04:14:00.758Z,10.82
2018-09-11T04:16:27.809Z,8.93
2018-09-11T04:18:55.057Z,9.88
2018-09-11T04:21:42.479Z,11.57
2018-09-11T04:24:09.539Z,10.35
2018-09-11T04:26:36.689Z,9.43
2018-09-11T04:29:03.842Z,9.18
2018-09-11T04:31:30.885Z,9.18
2018-09-11T04:33:57.935Z,9.13
2018-09-11T04:36:25.043Z,10.65
2018-09-11T04:38:52.030Z,13.98
2018-09-11T04:41:19.079Z,12.30
2018-09-11T04:43:46.143Z,10.02
2018-09-11T04:46:14.939Z,16.55
2018-09-11T04:48:41.971Z,8.77
2018-09-11T04:51:09.123Z,12.73
2018-09-11T04:53:36.165Z,8.52
2018-09-11T04:56:03.216Z,15.98
2018-09-11T04:58:30.268Z,10.13
2018-09-11T05:00:57.311Z,10.50
2018-09-11T05:03:24.462Z,11.70
2018-09-11T05:05:51.510Z,9.18
2018-09-11T05:08:18.567Z,10.82
2018-09-11T05:10:45.608Z,9.52
2018-09-11T05:13:12.657Z,14.07
2018-09-11T05:15:39.711Z,12.35
2018-09-11T05:18:06.865Z,10.52
2018-09-11T05:20:33.906Z,9.82
2018-09-11T05:23:01.644Z,10.50
2018-09-11T05:25:29.850Z,9.95
2018-09-11T05:27:56.902Z,13.20
2018-09-11T05:30:23.944Z,10.00
2018-09-11T05:32:51.196Z,16.58
2018-09-11T05:35:18.553Z,10.18
2018-09-11T05:37:45.806Z,9.90
2018-09-11T05:40:12.854Z,12.60
2018-09-11T05:42:40.006Z,14.25
2018-09-11T05:45:07.060Z,10.98
2018-09-11T05:47:34.409Z,10.20
2018-09-11T05:50:02.381Z,10.20
2018-09-11T05:52:29.433Z,10.38
2018-09-11T05:54:56.584Z,14.80
2018-09-11T05:57:44.802Z,12.25
2018-09-11T06:00:12.084Z,13.82
2018-09-11T06:02:39.235Z,13.35
2018-09-11T06:05:06.279Z,11.68
2018-09-11T06:07:33.330Z,10.65
2018-09-11T06:10:00.694Z,10.50
2018-09-11T06:12:28.146Z,11.63
2018-09-11T06:14:55.195Z,10.50
2018-09-11T06:17:22.240Z,14.90
2018-09-11T06:19:49.302Z,11.48
2018-09-11T06:22:16.340Z,11.15
2018-09-11T06:24:43.383Z,11.12
2018-09-11T06:27:10.440Z,13.07
2018-09-11T06:29:37.479Z,11.12
2018-09-11T06:32:04.529Z,10.52
2018-09-11T06:34:31.591Z,11.80
2018-09-11T06:36:58.808Z,13.10
2018-09-11T06:39:25.778Z,10.15
2018-09-11T06:41:52.825Z,8.57
2018-09-11T06:44:19.838Z,9.15
2018-09-11T06:46:46.927Z,12.93
2018-09-11T06:49:33.028Z,11.10
2018-09-11T06:52:00.748Z,8.18
2018-09-11T06:54:27.732Z,9.55
2018-09-11T06:56:54.779Z,9.45
2018-09-11T06:59:21.833Z,10.05
2018-09-11T07:01:48.903Z,8.02
2018-09-11T07:04:15.923Z,12.10
2018-09-11T07:06:44.514Z,10.43
2018-09-11T07:09:11.559Z,11.65
2018-09-11T07:11:40.860Z,9.65
2018-09-11T07:14:07.908Z,14.73
2018-09-11T07:16:34.997Z,9.65
2018-09-11T07:19:02.006Z,8.35
2018-09-11T07:21:29.745Z,7.95
2018-09-11T07:23:56.925Z,8.40
2018-09-11T07:26:23.971Z,7.28
2018-09-11T07:28:51.225Z,9.30
2018-09-11T07:31:36.572Z,7.40
2018-09-11T07:34:10.177Z,8.40
2018-09-11T07:36:58.884Z,7.00
2018-09-11T07:39:44.770Z,6.10
2018-09-11T07:42:30.460Z,8.32
2018-09-11T07:45:16.113Z,8.13
2018-09-11T07:48:04.186Z,7.55
2018-09-11T07:50:49.222Z,7.18
2018-09-11T07:53:16.283Z,8.85
2018-09-11T07:55:43.332Z,9.88
2018-09-11T07:58:10.467Z,6.32
2018-09-11T08:00:37.432Z,6.50
2018-09-11T08:03:04.515Z,10.55
2018-09-11T08:05:31.629Z,10.75
2018-09-11T08:07:59.497Z,6.28
2018-09-11T08:10:26.545Z,7.78
2018-09-11T08:12:53.599Z,9.13
2018-09-11T08:15:20.749Z,6.00
2018-09-11T08:17:47.906Z,6.57
2018-09-11T08:20:14.944Z,7.68
2018-09-11T08:22:42.207Z,7.78
2018-09-11T08:25:10.475Z,7.00
2018-09-11T08:27:37.832Z,6.97
2018-09-11T08:30:25.182Z,6.93
2018-09-11T08:32:52.204Z,7.95
2018-09-11T08:35:19.288Z,5.93
2018-09-11T08:37:46.306Z,6.12
2018-09-11T08:40:13.356Z,9.10
2018-09-11T08:42:40.403Z,5.93
2018-09-11T08:45:07.476Z,7.50
2018-09-11T08:47:34.704Z,6.72
2018-09-11T08:50:01.713Z,6.60
2018-09-11T08:52:28.813Z,15.23
2018-09-11T08:54:56.672Z,7.85
2018-09-11T08:57:23.715Z,7.03
2018-09-11T08:59:50.764Z,8.90
2018-09-11T09:02:18.837Z,9.02
2018-09-11T09:04:45.991Z,12.50
2018-09-11T09:07:13.245Z,7.53
2018-09-11T09:09:40.403Z,7.75
2018-09-11T09:12:07.457Z,7.78
2018-09-11T09:14:54.043Z,9.65
2018-09-11T09:17:22.023Z,6.45
2018-09-11T09:19:49.075Z,6.70
2018-09-11T09:22:16.114Z,6.90
2018-09-11T09:24:45.110Z,7.50
2018-09-11T09:27:12.576Z,7.07
2018-09-11T09:29:39.616Z,7.57
2018-09-11T09:32:06.670Z,8.80
2018-09-11T09:34:33.821Z,10.95
2018-09-11T09:37:01.158Z,7.45
2018-09-11T09:39:28.220Z,6.82
2018-09-11T09:41:55.274Z,8.77
2018-09-11T09:44:22.427Z,8.43
2018-09-11T09:46:49.469Z,7.20
2018-09-11T09:49:16.726Z,8.45
2018-09-11T09:51:45.920Z,14.93
2018-09-11T09:54:12.970Z,7.40
2018-09-11T09:56:40.121Z,8.50
2018-09-11T09:59:07.514Z,9.52
2018-09-11T10:01:34.632Z,7.30
2018-09-11T10:04:01.674Z,11.20
2018-09-11T10:06:49.157Z,7.80
2018-09-11T10:09:16.361Z,9.80
2018-09-11T10:11:43.476Z,7.90
2018-09-11T10:14:11.540Z,8.00
2018-09-11T10:16:38.626Z,8.35
2018-09-11T10:19:05.677Z,12.55
2018-09-11T10:21:32.929Z,10.32
2018-09-11T10:24:00.080Z,7.78
2018-09-11T10:26:27.128Z,9.32
2018-09-11T10:28:54.181Z,8.07
2018-09-11T10:31:21.430Z,9.85
2018-09-11T10:33:48.559Z,8.57
2018-09-11T10:36:15.807Z,8.20
2018-09-11T10:38:42.882Z,9.80
2018-09-11T10:41:09.939Z,10.38
2018-09-11T10:43:37.088Z,10.10
2018-09-11T10:46:05.360Z,9.55
2018-09-11T10:48:32.409Z,9.68
2018-09-11T10:50:59.462Z,8.82
2018-09-11T10:53:27.427Z,8.88
2018-09-11T10:55:54.476Z,8.75
2018-09-11T10:58:21.581Z,8.30
2018-09-11T11:00:49.700Z,10.30
2018-09-11T11:03:17.158Z,9.20
2018-09-11T11:05:44.213Z,10.02
2018-09-11T11:08:12.380Z,8.90
2018-09-11T11:10:39.533Z,8.88
2018-09-11T11:13:06.587Z,9.10
2018-09-11T11:15:33.738Z,8.38
2018-09-11T11:18:00.888Z,8.40
2018-09-11T11:20:28.135Z,8.40
2018-09-11T11:22:57.934Z,8.98
2018-09-11T11:25:24.997Z,8.60
2018-09-11T11:27:52.046Z,12.25
2018-09-11T11:30:19.101Z,9.45
2018-09-11T11:32:46.348Z,9.75
2018-09-11T11:35:13.602Z,7.85
2018-09-11T11:37:41.061Z,8.18
2018-09-11T11:40:08.109Z,8.10
2018-09-11T11:42:36.086Z,7.53
2018-09-11T11:45:03.743Z,10.18
2018-09-11T11:47:30.960Z,10.77
2018-09-11T11:49:58.044Z,9.90
2018-09-11T11:52:25.092Z,8.60
2018-09-11T11:54:52.376Z,12.75
2018-09-11T11:57:19.497Z,7.82
2018-09-11T11:59:46.552Z,8.18
2018-09-11T12:02:13.802Z,8.57
2018-09-11T12:04:41.058Z,10.30
2018-09-11T12:07:08.208Z,12.68
2018-09-11T12:09:35.359Z,9.85
2018-09-11T12:12:02.510Z,7.50
2018-09-11T12:14:29.863Z,8.18
2018-09-11T12:16:56.920Z,8.82
2018-09-11T12:19:24.061Z,8.90
2018-09-11T12:21:51.208Z,9.55
2018-09-11T12:24:18.878Z,7.47
2018-09-11T12:26:46.078Z,9.85
2018-09-11T12:29:13.795Z,7.35
2018-09-11T12:31:41.041Z,8.02
2018-09-11T12:34:08.812Z,8.35
2018-09-11T12:36:38.825Z,8.20
2018-09-11T12:39:05.874Z,8.52
2018-09-11T12:41:35.341Z,7.93
2018-09-11T12:44:02.606Z,8.07
2018-09-11T12:46:29.962Z,8.75
2018-09-11T12:48:57.005Z,8.02
2018-09-11T12:51:24.392Z,10.35
2018-09-11T12:53:51.753Z,7.82
2018-09-11T12:56:18.904Z,8.35
2018-09-11T12:58:45.947Z,9.85
2018-09-11T13:01:12.996Z,10.07
2018-09-11T13:03:40.051Z,9.90
2018-09-11T13:06:07.297Z,8.60
2018-09-11T13:08:34.351Z,8.63
2018-09-11T13:11:01.905Z,8.32
2018-09-11T13:13:29.442Z,8.55
2018-09-11T13:15:56.515Z,8.48
2018-09-11T13:18:24.146Z,10.57
2018-09-11T13:20:51.289Z,8.85
2018-09-11T13:23:18.582Z,9.27
2018-09-11T13:25:45.636Z,8.70
2018-09-11T13:28:13.806Z,8.13
2018-09-11T13:30:41.058Z,9.18
2018-09-11T13:33:08.317Z,8.52
2018-09-11T13:35:35.775Z,8.25
2018-09-11T13:38:04.221Z,8.52
2018-09-11T13:40:31.580Z,8.90
2018-09-11T13:42:58.657Z,9.23
2018-09-11T13:45:25.915Z,9.15
2018-09-11T13:47:53.189Z,9.45
2018-09-11T13:50:20.416Z,11.48
2018-09-11T13:52:47.589Z,7.87
2018-09-11T13:55:15.131Z,9.95
2018-09-11T13:57:42.175Z,8.70
2018-09-11T14:00:09.533Z,8.20
2018-09-11T14:02:37.003Z,9.45
2018-09-11T14:05:04.721Z,10.60
2018-09-11T14:07:32.745Z,8.20
2018-09-11T14:10:21.233Z,12.45
2018-09-11T14:12:50.040Z,8.45
2018-09-11T14:15:18.113Z,10.15
2018-09-11T14:17:45.391Z,9.05
2018-09-11T14:20:12.953Z,8.30
2018-09-11T14:22:40.000Z,8.77
2018-09-11T14:25:07.053Z,7.80
2018-09-11T14:27:35.501Z,8.43
2018-09-11T14:30:02.585Z,13.25
2018-09-11T14:32:29.735Z,9.88
2018-09-11T14:34:56.751Z,8.75
2018-09-11T14:37:24.546Z,9.95
2018-09-11T14:39:51.593Z,9.02
2018-09-11T14:42:18.646Z,8.57
2018-09-11T14:44:45.996Z,9.20
2018-09-11T14:47:13.148Z,8.55
2018-09-11T14:49:40.195Z,8.98
2018-09-11T14:52:11.124Z,10.27
2018-09-11T14:54:38.188Z,8.60
2018-09-11T14:57:06.774Z,9.93
2018-09-11T14:59:34.022Z,9.30
2018-09-11T15:02:01.386Z,13.75
2018-09-11T15:04:28.432Z,10.10
2018-09-11T15:06:55.549Z,9.55
2018-09-11T15:09:22.624Z,9.18
2018-09-11T15:11:49.683Z,10.10
2018-09-11T15:14:16.838Z,9.05
2018-09-11T15:16:43.979Z,9.18
2018-09-11T15:19:13.342Z,13.55
2018-09-11T15:21:42.361Z,9.52
2018-09-11T15:24:09.428Z,9.27
2018-09-11T15:26:36.577Z,13.80
2018-09-11T15:29:03.622Z,11.57
2018-09-11T15:31:30.772Z,14.38
2018-09-11T15:33:58.029Z,12.15
2018-09-11T15:36:25.074Z,11.77
2018-09-11T15:38:52.121Z,9.68
2018-09-11T15:41:19.578Z,13.13
2018-09-11T15:43:46.632Z,11.95
2018-09-11T15:46:14.090Z,12.57
2018-09-11T15:48:57.409Z,9.63
2018-09-11T15:51:29.654Z,10.30
2018-09-11T15:53:56.739Z,13.40
2018-09-11T15:56:23.783Z,11.10
2018-09-11T15:58:51.041Z,12.75
2018-09-11T16:01:18.457Z,11.75
2018-09-11T16:03:45.547Z,14.77
2018-09-11T16:06:12.693Z,17.33
2018-09-11T16:08:39.952Z,10.73
2018-09-11T16:11:08.309Z,15.27
2018-09-11T16:13:35.375Z,14.35
2018-09-11T16:16:02.424Z,12.00
2018-09-11T16:18:30.293Z,14.65
2018-09-11T16:20:57.352Z,12.68
2018-09-11T16:23:24.594Z,15.73
2018-09-11T16:25:54.408Z,11.10
2018-09-11T16:28:30.110Z,11.82
2018-09-11T16:30:57.827Z,16.35
2018-09-11T16:33:26.523Z,14.13
2018-09-11T16:36:11.460Z,21.75
2018-09-11T16:38:39.870Z,18.48
2018-09-11T16:41:07.613Z,20.62
2018-09-11T16:43:34.779Z,23.52
2018-09-11T16:46:02.046Z,16.98
2018-09-11T16:48:29.281Z,24.33
2018-09-11T16:50:58.651Z,22.73
2018-09-11T16:53:25.732Z,16.02
2018-09-11T16:55:53.190Z,19.70
2018-09-11T16:58:21.910Z,17.50
2018-09-11T17:00:50.332Z,20.90
2018-09-11T17:03:17.518Z,17.10
2018-09-11T17:05:44.736Z,16.60
2018-09-11T17:08:13.144Z,19.20
2018-09-11T17:10:40.397Z,19.30
2018-09-11T17:13:07.445Z,17.05
2018-09-11T17:15:34.905Z,14.85
2018-09-11T17:18:02.332Z,16.02
2018-09-11T17:20:30.537Z,16.52
2018-09-11T17:22:57.797Z,16.98
2018-09-11T17:25:25.147Z,16.80
2018-09-11T17:27:52.502Z,20.08
2018-09-11T17:30:21.262Z,20.98
2018-09-11T17:35:38.171Z,19.87
2018-09-11T17:38:05.478Z,19.20
2018-09-11T17:40:35.850Z,18.27
2018-09-11T17:43:04.189Z,17.12
2018-09-11T17:45:32.567Z,15.77
2018-09-11T17:48:00.027Z,16.30
2018-09-11T17:50:28.100Z,19.95
2018-09-11T17:52:56.040Z,15.27
2018-09-11T17:55:24.347Z,18.08
2018-09-11T17:57:57.604Z,17.85
2018-09-11T18:00:27.026Z,16.50
2018-09-11T18:02:58.061Z,17.33
2018-09-11T18:05:25.401Z,22.10
2018-09-11T18:07:52.597Z,18.42
2018-09-11T18:10:19.946Z,20.08
2018-09-11T18:12:48.718Z,20.12
2018-09-11T18:15:18.452Z,19.83
2018-09-11T18:18:07.832Z,29.23
2018-09-11T18:20:46.741Z,21.90
2018-09-11T18:23:15.129Z,25.45
2018-09-11T18:25:43.798Z,23.65
2018-09-11T18:28:15.576Z,21.10
2018-09-11T18:30:45.267Z,23.27
2018-09-11T18:33:12.950Z,21.02
2018-09-11T18:35:41.714Z,21.48
2018-09-11T18:38:14.021Z,25.25
2018-09-11T18:40:41.568Z,25.65
2018-09-11T18:43:11.307Z,19.50
2018-09-11T18:45:44.783Z,27.30
2018-09-11T18:48:13.992Z,21.60
2018-09-11T18:50:44.327Z,20.40
2018-09-11T18:53:14.751Z,22.37
2018-09-11T18:55:44.744Z,17.35
2018-09-11T18:58:16.203Z,19.12
2018-09-11T19:00:50.379Z,21.25
2018-09-11T19:26:05.902Z,26.27
2018-09-11T19:28:35.984Z,26.70
2018-09-11T19:31:05.147Z,26.23
2018-09-11T19:33:35.832Z,23.85
2018-09-11T19:36:03.676Z,21.67
2018-09-11T19:38:33.420Z,23.02
2018-09-11T19:41:06.052Z,25.92
2018-09-11T19:43:38.495Z,27.95
2018-09-11T19:46:07.414Z,24.35
2018-09-11T19:48:36.941Z,26.10
2018-09-11T19:51:11.463Z,23.45
2018-09-11T19:53:42.816Z,26.62
2018-09-11T19:56:11.490Z,31.87
2018-09-11T19:59:02.313Z,33.42
2018-09-11T20:01:52.043Z,32.55
2018-09-11T20:04:43.538Z,32.15
2018-09-11T20:07:31.509Z,28.92
2018-09-11T20:10:24.389Z,30.23
2018-09-11T20:13:12.104Z,31.73
2018-09-11T20:15:40.808Z,32.22
2018-09-11T20:18:10.575Z,28.30
2018-09-11T20:20:39.547Z,30.85
2018-09-11T20:23:08.953Z,28.30
2018-09-11T20:25:39.069Z,34.42
2018-09-11T20:28:12.863Z,37.22
2018-09-11T20:30:40.936Z,28.15
2018-09-11T20:33:10.010Z,24.90
2018-09-11T20:35:38.319Z,33.53
2018-09-11T20:38:05.774Z,24.35
2018-09-11T20:40:48.962Z,23.33
2018-09-11T20:43:17.875Z,24.27
2018-09-11T20:45:46.766Z,27.27
2018-09-11T20:48:14.138Z,29.63
2018-09-11T20:50:41.287Z,27.02
2018-09-11T20:53:10.146Z,23.15
2018-09-11T20:55:38.192Z,24.35
2018-09-11T20:58:07.149Z,29.60
2018-09-11T21:00:36.079Z,29.52
2018-09-11T21:03:03.393Z,30.35
2018-09-11T21:05:31.155Z,34.28
2018-09-11T21:07:58.409Z,33.53
2018-09-11T21:10:25.867Z,35.42
2018-09-11T21:12:52.914Z,32.25
2018-09-11T21:15:20.891Z,33.85
2018-09-11T21:17:48.056Z,24.15
2018-09-11T21:20:15.290Z,25.48
2018-09-11T21:22:42.615Z,29.33
2018-09-11T21:25:09.802Z,28.73
2018-09-11T21:27:36.846Z,32.78
2018-09-11T21:30:05.026Z,35.80
2018-09-11T21:32:32.484Z,37.75
2018-09-11T21:34:59.528Z,38.08
2018-09-11T21:37:27.805Z,37.50
2018-09-11T21:39:54.860Z,34.60
2018-09-11T21:42:23.097Z,35.78
2018-09-11T21:44:50.179Z,37.90
2018-09-11T21:47:17.329Z,31.35
2018-09-11T21:49:44.384Z,30.23
2018-09-11T21:52:11.736Z,27.87
2018-09-11T21:54:38.756Z,29.55
2018-09-11T21:57:06.651Z,37.10
2018-09-11T21:59:33.700Z,34.78
2018-09-11T22:02:00.761Z,40.25
2018-09-11T22:04:27.797Z,37.88
2018-09-11T22:06:54.896Z,35.90
2018-09-11T22:09:21.904Z,29.98
2018-09-11T22:11:48.946Z,30.92
2018-09-11T22:14:15.992Z,36.50
2018-09-11T22:16:43.050Z,33.15
2018-09-11T22:19:10.938Z,34.97
2018-09-11T22:21:38.166Z,33.95
2018-09-11T22:24:05.518Z,36.60
2018-09-11T22:26:32.571Z,34.53
2018-09-11T22:28:59.614Z,42.05
2018-09-11T22:31:26.663Z,41.72
2018-09-11T22:33:53.718Z,37.22
2018-09-11T22:36:20.761Z,38.90
2018-09-11T22:38:47.810Z,38.67
2018-09-11T22:41:14.862Z,37.20
2018-09-11T22:43:41.906Z,39.05
2018-09-11T22:46:09.166Z,42.00
2018-09-11T22:48:36.209Z,33.08
2018-09-11T22:51:03.360Z,31.85
2018-09-11T22:53:31.329Z,30.23
2018-09-11T22:55:58.480Z,37.38
2018-09-11T22:58:25.637Z,28.80
2018-09-11T23:00:52.686Z,35.20
2018-09-11T23:03:19.730Z,44.70
2018-09-11T23:05:46.780Z,38.22
2018-09-11T23:08:13.798Z,36.25
2018-09-11T23:10:40.875Z,37.90
2018-09-11T23:13:07.923Z,42.62
2018-09-11T23:15:34.982Z,43.78
2018-09-11T23:18:02.026Z,41.88
2018-09-11T23:20:29.069Z,38.20
2018-09-11T23:22:56.124Z,39.80
2018-09-11T23:25:23.278Z,41.50
2018-09-11T23:27:50.523Z,40.40
2018-09-11T23:30:17.579Z,41.53
2018-09-11T23:32:44.626Z,38.58
2018-09-11T23:35:11.975Z,41.33
2018-09-11T23:37:39.030Z,36.88
2018-09-11T23:40:06.077Z,41.50
2018-09-11T23:42:33.639Z,43.35
2018-09-11T23:45:01.506Z,43.22
2018-09-11T23:47:28.557Z,45.17
2018-09-11T23:49:55.602Z,40.88
2018-09-11T23:52:22.647Z,41.25
2018-09-11T23:54:49.702Z,42.55
2018-09-11T23:57:16.744Z,45.35
2018-09-11T23:59:43.792Z,49.83
